Portada
METAR-TAF:

METAR-TAF

Aeroports :

Bujumbura, Burundi

latitud: 03-19S, longitud: 029-19E, altitud: 782 m

METAR: manca

Hora: 09:17 (07:17 UTC)

Pronòstic

L'informe es va fer fa 2 hores i 17 minuts, a les 05:00 UTC
Pronòstic vàlid del 20 a les 06 UTC al 21 a les 12 UTC
Vent 10 kt del Sud amb ràfegues de 15 kt
Visibilitat 10 km o més
sense núvols per sota de 1500 mi sense presència de cumulonimbus.
calitja

TAF: HBBA 200500Z 2006/2112 36002KT 5000HZ NSC BECMG2010/2012 18010G15KT 8000 FEW030 BECMG2017/2019 VRB03KT CAVOK BECMG2102/2104 36003KT BECMG2106/2109 HZ BECMG2110/2112 18010G15KT

Observacions i pronòstics meteorològics de més de 4000 aeroports (METAR i TAF).

Les estacions disponibles són els punts grocs i vermells al mapa.

Posi el ratolí al punt desitjat per veure el nom de l'estació.

Feu clic per veure les observacions i els pronòstics meteorològics.

Per canviar el mapa: feu clic els botons verds amb una creu de color negre per apropar; al botó verd amb un guió per allunyar la imatge; o en les fletxes verdes per a mapes adjacents.


METAR-TAF: